Terminal Aerodrome Forecast
Issued by NWS Quad Cities IA IL

Home | Current Version | Previous Version | Text Only | Print | Product List | Glossary On
Versions: 1 2 3 4 5 6 7 8 9 10 11 12 13 14 15 16 17 18 19
911
FTUS43 KDVN 031120
TAFDBQ
TAF
KDBQ 031120Z 0312/0412 27005KT P6SM SKC
     FM031500 27011KT P6SM FEW250
     FM031900 28013G20KT P6SM SCT250
     FM032300 27011KT P6SM BKN100 PROB30 0400/0404 5SM -SHRA BKN050
     FM040500 32012KT P6SM SKC=

USA.gov is the U.S. government's official web portal to all federal, state and local government web resources and services.